Time;durP1;ratioP1;P1;durP2;ratioP2;P2;SDS_P1;SDS_P2;PMS_P1;PMS_P2;Temp;Humidity;BMP_temperature;BMP_pressure;BME280_temperature;BME280_humidity;BME280_pressure;Samples;Min_cycle;Max_cycle;Signal;HPM_P1;HPM_P2
2022/11/27 00:00:31;;;;;;;24.63;12.60;;;;;;;9.61;59.71;100930.56;4473343;32;20115;-96
2022/11/27 00:02:57;;;;;;;24.00;12.50;;;;;;;9.48;59.70;100920.28;4460459;31;20393;-96
2022/11/27 00:05:22;;;;;;;26.50;14.02;;;;;;;9.51;59.71;100925.47;4470985;32;24061;-95
2022/11/27 00:07:47;;;;;;;23.52;12.75;;;;;;;9.38;59.70;100915.16;4473134;32;27926;-95
2022/11/27 00:10:13;;;;;;;23.50;12.70;;;;;;;9.28;59.70;100924.78;4475723;31;22112;-95
2022/11/27 00:12:38;;;;;;;26.92;13.23;;;;;;;9.42;59.71;100924.66;4475733;31;20126;-95
2022/11/27 00:15:04;;;;;;;24.12;12.70;;;;;;;9.51;59.71;100928.06;4474618;31;20168;-96
2022/11/27 00:17:29;;;;;;;24.17;13.02;;;;;;;9.38;59.70;100926.44;4488982;31;20104;-96
2022/11/27 00:19:54;;;;;;;27.50;13.52;;;;;;;9.13;59.68;100925.75;4464739;32;25733;-95
2022/11/27 00:22:20;;;;;;;25.37;13.95;;;;;;;9.17;59.69;100924.84;4460100;32;20119;-96
2022/11/27 00:24:45;;;;;;;24.77;13.77;;;;;;;9.25;59.69;100926.56;4473499;32;20497;-96
2022/11/27 00:27:11;;;;;;;34.92;19.60;;;;;;;9.21;59.69;100929.16;4486308;31;20188;-96
2022/11/27 00:29:36;;;;;;;39.40;20.67;;;;;;;9.27;59.70;100930.88;4488944;32;20092;-95
2022/11/27 00:32:02;;;;;;;43.40;21.87;;;;;;;9.08;59.68;100930.12;4486909;32;24476;-96
2022/11/27 00:34:28;;;;;;;38.97;21.02;;;;;;;9.02;59.68;100931.91;4480549;31;20095;-96
2022/11/27 00:36:53;;;;;;;32.83;18.87;;;;;;;8.92;59.68;100928.50;4470368;32;20146;-95
2022/11/27 00:39:19;;;;;;;39.85;19.83;;;;;;;8.92;59.68;100933.69;4473837;31;21460;-96
2022/11/27 00:41:45;;;;;;;38.17;18.58;;;;;;;8.90;59.67;100933.69;4489205;31;20113;-95
2022/11/27 00:44:12;;;;;;;39.65;19.60;;;;;;;8.94;59.67;100937.12;4475775;31;20444;-96
2022/11/27 00:46:39;;;;;;;39.08;20.48;;;;;;;8.95;59.67;100928.47;4476056;31;20095;-95
2022/11/27 00:49:05;;;;;;;40.45;21.80;;;;;;;8.81;59.66;100935.50;4467131;32;20482;-96
2022/11/27 00:51:30;;;;;;;45.05;24.17;;;;;;;9.14;59.69;100934.41;4472272;32;20084;-95
2022/11/27 00:53:56;;;;;;;45.33;23.90;;;;;;;9.09;59.68;100938.78;4474911;31;21735;-95
2022/11/27 00:56:23;;;;;;;46.00;23.55;;;;;;;9.00;59.68;100936.25;4470750;31;20083;-95
2022/11/27 00:58:49;;;;;;;43.05;21.95;;;;;;;8.97;59.67;100941.44;4486222;31;20096;-94
2022/11/27 01:01:22;;;;;;;45.80;23.65;;;;;;;8.86;59.67;100942.37;4466057;32;20091;-96
2022/11/27 01:03:47;;;;;;;39.75;21.23;;;;;;;8.67;59.66;100943.34;4473588;32;20104;-95
2022/11/27 01:06:13;;;;;;;52.10;24.15;;;;;;;8.63;59.65;100952.03;4473143;32;20347;-96
2022/11/27 01:08:38;;;;;;;49.05;23.25;;;;;;;8.61;59.66;100949.44;4459542;32;20108;-95
2022/11/27 01:11:04;;;;;;;41.97;22.25;;;;;;;8.53;59.66;100942.59;4466041;32;20147;-95
2022/11/27 01:13:34;;;;;;;49.63;23.25;;;;;;;8.52;59.65;100941.72;4464385;31;20127;-95
2022/11/27 01:16:07;;;;;;;50.90;25.08;;;;;;;8.35;59.64;100943.50;4476249;31;20124;-95
2022/11/27 01:18:33;;;;;;;52.17;24.83;;;;;;;8.51;59.64;100946.88;4477697;31;20068;-94
2022/11/27 01:20:59;;;;;;;47.35;23.45;;;;;;;8.47;59.65;100940.84;4476010;31;20143;-95
2022/11/27 01:23:24;;;;;;;47.80;22.98;;;;;;;8.47;59.64;100940.84;4475342;31;20112;-95
2022/11/27 01:25:52;;;;;;;46.40;24.02;;;;;;;8.39;59.65;100941.75;4472860;32;20401;-95
2022/11/27 01:28:18;;;;;;;50.15;24.75;;;;;;;8.42;59.64;100944.34;4469001;32;20183;-96
2022/11/27 01:30:43;;;;;;;45.58;22.67;;;;;;;8.33;59.64;100947.81;4470609;31;20118;-95
2022/11/27 01:33:08;;;;;;;49.13;23.60;;;;;;;8.33;59.64;100955.59;4459950;32;20132;-96
2022/11/27 01:35:34;;;;;;;50.83;25.15;;;;;;;8.29;59.63;100954.75;4459674;32;20568;-95
2022/11/27 01:37:59;;;;;;;51.30;26.12;;;;;;;8.27;59.64;100956.47;4463581;31;20404;-94
2022/11/27 01:40:25;;;;;;;51.10;25.25;;;;;;;8.21;59.63;100956.47;4467466;32;29213;-95
2022/11/27 01:42:50;;;;;;;54.97;26.08;;;;;;;8.21;59.63;100953.03;4474121;31;20139;-95
2022/11/27 01:45:17;;;;;;;50.72;25.27;;;;;;;8.19;59.63;100950.44;4474558;31;29518;-96
2022/11/27 01:47:57;;;;;;;51.20;24.92;;;;;;;8.24;59.63;100947.81;4475697;31;20084;-95
2022/11/27 01:50:25;;;;;;;49.45;24.65;;;;;;;8.14;59.63;100946.16;4488433;31;20075;-96
2022/11/27 01:52:53;;;;;;;48.47;24.85;;;;;;;8.15;59.63;100943.53;4475584;31;20126;-96
2022/11/27 01:55:27;;;;;;;44.25;24.17;;;;;;;8.20;59.63;100946.97;4469827;32;20130;-95
2022/11/27 01:57:55;;;;;;;44.70;23.50;;;;;;;8.28;59.64;100949.53;4486984;31;20056;-96
2022/11/27 02:00:20;;;;;;;48.60;24.65;;;;;;;8.20;59.63;100948.72;4475743;31;20083;-96
2022/11/27 02:02:46;;;;;;;46.53;23.08;;;;;;;8.18;59.63;100950.44;4487876;31;20487;-95
2022/11/27 02:05:15;;;;;;;46.72;23.33;;;;;;;8.09;59.63;100958.28;4475083;31;20372;-95
2022/11/27 02:07:40;;;;;;;51.07;23.73;;;;;;;8.15;59.64;100953.06;4477734;31;20068;-96
2022/11/27 02:10:06;;;;;;;45.55;22.62;;;;;;;8.08;59.63;100957.41;4474241;32;20586;-96
2022/11/27 02:12:44;;;;;;;39.25;21.33;;;;;;;8.13;59.62;100953.06;4474245;31;20380;-95
2022/11/27 02:15:21;;;;;;;40.00;22.58;;;;;;;8.07;59.62;100960.00;4474335;32;20157;-96
2022/11/27 02:18:01;;;;;;;39.25;18.58;;;;;;;7.98;59.61;100958.28;4466146;31;20100;-96
2022/11/27 02:20:44;;;;;;;33.70;17.23;;;;;;;7.90;59.61;100957.44;4488891;31;20103;-96
2022/11/27 02:23:47;;;;;;;31.73;17.17;;;;;;;7.94;59.62;100954.81;4487111;31;20122;-96
2022/11/27 02:26:36;;;;;;;30.10;15.63;;;;;;;7.97;59.62;100943.59;4492447;31;20111;-96
2022/11/27 02:29:09;;;;;;;34.40;18.37;;;;;;;7.83;59.61;100948.81;4470900;31;20118;-96
2022/11/27 02:31:39;;;;;;;33.97;18.33;;;;;;;7.83;59.61;100948.81;4476937;31;20089;-95
2022/11/27 02:34:09;;;;;;;;;;;;;;;7.95;59.62;100955.69;4478883;31;20109;-95
2022/11/27 02:36:34;;;;;;;41.10;19.75;;;;;;;8.05;59.62;100954.81;4499919;31;19964;-96
2022/11/27 02:39:05;;;;;;;35.88;19.70;;;;;;;7.94;59.62;100965.19;4483019;31;20131;-96
2022/11/27 02:41:35;;;;;;;34.53;18.10;;;;;;;7.93;59.62;100960.03;4477839;31;20108;-96
2022/11/27 02:44:01;;;;;;;;;;;;;;;8.00;59.62;100962.59;4476983;31;20109;-95
2022/11/27 02:46:26;;;;;;;38.47;20.60;;;;;;;8.06;59.62;100963.47;4487108;32;19983;-95
2022/11/27 02:48:57;;;;;;;42.22;22.58;;;;;;;8.15;59.63;100963.44;4468840;31;20199;-95
2022/11/27 02:51:41;;;;;;;45.75;23.58;;;;;;;8.15;59.63;100964.28;4478465;31;20112;-96
2022/11/27 02:54:08;;;;;;;49.25;24.60;;;;;;;7.96;59.62;100968.66;4477323;31;20072;-95
2022/11/27 02:56:33;;;;;;;57.13;27.50;;;;;;;8.17;59.63;100959.09;4476725;31;20096;-96
2022/11/27 02:59:02;;;;;;;54.35;26.12;;;;;;;7.97;59.61;100969.50;4474011;32;20412;-96
2022/11/27 03:01:30;;;;;;;55.08;25.95;;;;;;;7.79;59.61;100966.94;4475438;31;20089;-96
2022/11/27 03:03:55;;;;;;;48.40;25.00;;;;;;;7.64;59.61;100967.84;4476512;31;20103;-95
2022/11/27 03:06:33;;;;;;;57.90;27.25;;;;;;;7.62;59.61;100959.19;4475983;31;21577;-96
2022/11/27 03:09:02;;;;;;;75.93;30.70;;;;;;;7.43;59.59;100965.25;4477095;31;20096;-96
2022/11/27 03:11:29;;;;;;;79.27;32.10;;;;;;;7.59;59.59;100967.84;4477448;31;20148;-96
2022/11/27 03:13:56;;;;;;;73.82;31.23;;;;;;;7.66;59.60;100961.78;4473405;32;20901;-96
2022/11/27 03:16:41;;;;;;;58.83;28.77;;;;;;;7.54;59.59;100963.50;4471809;31;20130;-96
2022/11/27 03:19:24;;;;;;;213.30;42.15;;;;;;;7.82;59.61;100964.38;4473266;32;20124;-96
2022/11/27 03:22:02;;;;;;;73.75;32.38;;;;;;;7.52;59.59;100971.28;4484670;31;20084;-96
2022/11/27 03:24:28;;;;;;;75.45;32.00;;;;;;;7.51;59.60;100969.56;4477826;31;20120;-96
2022/11/27 03:26:54;;;;;;;63.22;30.30;;;;;;;7.39;59.58;100967.84;4476121;31;20142;-95
2022/11/27 03:29:34;;;;;;;62.50;30.02;;;;;;;7.24;59.57;100969.53;4465201;31;20167;-96
2022/11/27 03:31:59;;;;;;;105.05;37.55;;;;;;;7.28;59.58;100966.94;4480883;32;20417;-96
2022/11/27 03:34:25;;;;;;;67.10;32.28;;;;;;;7.27;59.58;100966.97;4460793;31;20164;-96
2022/11/27 03:36:50;;;;;;;78.62;36.50;;;;;;;7.32;59.58;100973.00;4467789;31;20104;-96
2022/11/27 03:39:15;;;;;;;73.53;35.58;;;;;;;7.46;59.58;100973.00;4476273;31;20141;-96
2022/11/27 03:41:47;;;;;;;73.62;34.85;;;;;;;7.32;59.58;100978.19;4472691;32;33228;-96
2022/11/27 03:44:18;;;;;;;65.78;33.95;;;;;;;7.18;59.58;100982.50;4486474;31;20469;-96
2022/11/27 03:47:04;;;;;;;75.80;34.67;;;;;;;7.13;59.57;100987.66;4492190;31;20134;-96
2022/11/27 03:49:44;;;;;;;63.60;32.65;;;;;;;7.07;59.57;100983.31;4477240;31;20100;-95
2022/11/27 03:52:37;;;;;;;65.37;31.67;;;;;;;7.02;59.57;100979.87;4502841;31;20143;-96
2022/11/27 03:55:14;;;;;;;68.00;32.33;;;;;;;6.96;59.57;100987.62;4491393;31;20099;-96
2022/11/27 03:57:48;;;;;;;66.43;33.17;;;;;;;7.15;59.57;100985.09;4480693;32;20136;-95
2022/11/27 04:00:14;;;;;;;64.62;31.58;;;;;;;7.25;59.59;100982.50;4486831;32;20126;-96
2022/11/27 04:02:42;;;;;;;59.47;30.92;;;;;;;7.02;59.57;100979.87;4460683;32;20110;-95
2022/11/27 04:05:08;;;;;;;62.35;30.58;;;;;;;6.96;59.57;100979.84;4473635;32;20108;-96
2022/11/27 04:07:33;;;;;;;66.57;32.15;;;;;;;6.94;59.55;100976.41;4481471;31;20108;-95
2022/11/27 04:09:58;;;;;;;84.78;37.03;;;;;;;6.94;59.57;100976.41;4476010;31;20162;-94
2022/11/27 04:12:24;;;;;;;104.57;40.08;;;;;;;7.07;59.57;100978.16;4476728;31;32691;-96
2022/11/27 04:14:49;;;;;;;91.95;37.58;;;;;;;7.11;59.57;100973.00;4466915;32;26929;-95
2022/11/27 04:17:15;;;;;;;130.43;41.65;;;;;;;6.98;59.57;100972.09;4485856;32;23512;-95
2022/11/27 04:19:40;;;;;;;95.80;41.78;;;;;;;7.01;59.56;100969.50;4483342;31;21147;-96
2022/11/27 04:22:05;;;;;;;227.95;44.80;;;;;;;6.95;59.57;100980.72;4481128;31;20163;-96
2022/11/27 04:24:31;;;;;;;172.45;40.10;;;;;;;6.73;59.56;100982.37;4470385;32;35736;-95
2022/11/27 04:26:56;;;;;;;218.70;45.65;;;;;;;6.78;59.55;100985.84;4472606;31;20187;-95
2022/11/27 04:29:21;;;;;;;209.18;44.28;;;;;;;6.72;59.55;100987.56;4487368;32;20140;-95
2022/11/27 04:31:47;;;;;;;224.65;43.45;;;;;;;6.62;59.54;100988.34;4469740;31;31489;-96
2022/11/27 04:34:12;;;;;;;306.63;44.83;;;;;;;6.78;59.55;100991.00;4467112;31;20552;-95
2022/11/27 04:36:38;;;;;;;168.90;41.45;;;;;;;6.65;59.54;100980.63;4472352;32;20131;-96
2022/11/27 04:39:03;;;;;;;183.57;43.80;;;;;;;6.85;59.56;100991.03;4470702;32;21447;-95
2022/11/27 04:41:28;;;;;;;124.70;37.58;;;;;;;6.81;59.56;100986.72;4477971;31;30564;-95
2022/11/27 04:43:54;;;;;;;109.10;38.70;;;;;;;6.89;59.56;100975.53;4479521;31;20212;-95
2022/11/27 04:46:20;;;;;;;107.82;43.03;;;;;;;6.81;59.56;100977.22;4464096;31;20402;-96
2022/11/27 04:48:45;;;;;;;110.05;40.20;;;;;;;6.65;59.54;100970.28;4468095;31;20119;-95
2022/11/27 04:51:11;;;;;;;107.30;38.72;;;;;;;6.64;59.54;100973.75;4474548;31;20435;-95
2022/11/27 04:53:36;;;;;;;117.25;39.50;;;;;;;6.81;59.56;100973.78;4472810;32;20143;-96
2022/11/27 04:56:02;;;;;;;86.50;37.97;;;;;;;6.80;59.56;100980.66;4475163;32;20154;-95
2022/11/27 04:58:27;;;;;;;101.57;39.28;;;;;;;6.70;59.55;100981.50;4491912;31;20088;-95
2022/11/27 05:00:52;;;;;;;102.38;35.90;;;;;;;6.78;59.55;100972.03;4478775;31;20157;-96
2022/11/27 05:03:18;;;;;;;72.50;33.30;;;;;;;6.93;59.56;100969.50;4466139;31;20399;-96
2022/11/27 05:05:43;;;;;;;65.97;29.10;;;;;;;6.94;59.57;100966.06;4468084;32;20143;-96
2022/11/27 05:08:09;;;;;;;67.45;31.25;;;;;;;7.03;59.57;100970.38;4473755;31;20173;-96
2022/11/27 05:10:34;;;;;;;61.53;30.12;;;;;;;6.93;59.56;100968.63;4473218;32;24572;-96
2022/11/27 05:12:59;;;;;;;69.90;30.05;;;;;;;6.87;59.56;100969.50;4469441;31;28013;-95
2022/11/27 05:15:25;;;;;;;74.95;31.02;;;;;;;6.86;59.56;100974.62;4462406;32;20121;-96
2022/11/27 05:17:50;;;;;;;51.80;26.12;;;;;;;6.91;59.56;100968.63;4467992;32;20139;-95
2022/11/27 05:20:16;;;;;;;61.78;26.33;;;;;;;6.99;59.56;100968.66;4475850;31;23970;-95
2022/11/27 05:22:43;;;;;;;54.40;24.65;;;;;;;7.13;59.57;100968.69;4477202;31;20127;-95
2022/11/27 05:25:08;;;;;;;53.55;24.83;;;;;;;7.09;59.57;100967.78;4490947;31;20099;-95
2022/11/27 05:27:33;;;;;;;55.10;25.92;;;;;;;7.19;59.58;100972.13;4478221;31;20129;-94
2022/11/27 05:29:59;;;;;;;77.47;21.98;;;;;;;6.97;59.57;100970.38;4472386;32;20416;-95
2022/11/27 05:32:24;;;;;;;62.60;20.70;;;;;;;7.14;59.57;100973.88;4474547;31;24207;-95
2022/11/27 05:34:50;;;;;;;60.92;21.85;;;;;;;7.18;59.58;100969.53;4478014;31;20169;-95
2022/11/27 05:37:15;;;;;;;50.88;20.45;;;;;;;7.21;59.58;100970.41;4477129;31;20127;-95
2022/11/27 05:39:42;;;;;;;57.22;19.23;;;;;;;7.20;59.58;100973.00;4487403;32;20076;-96
2022/11/27 05:42:08;;;;;;;72.72;20.40;;;;;;;7.17;59.57;100970.41;4461044;32;20112;-96
2022/11/27 05:44:33;;;;;;;75.53;18.75;;;;;;;7.12;59.58;100965.22;4472960;31;20112;-95
2022/11/27 05:46:58;;;;;;;54.17;17.27;;;;;;;6.97;59.57;100966.06;4475088;31;20148;-95
2022/11/27 05:49:24;;;;;;;165.68;20.33;;;;;;;6.93;59.56;100960.88;4464134;31;20120;-95
2022/11/27 05:51:49;;;;;;;51.28;17.27;;;;;;;7.08;59.57;100961.75;4487655;31;22270;-95
2022/11/27 05:54:15;;;;;;;80.22;20.95;;;;;;;6.93;59.56;100966.91;4474598;31;31504;-95
2022/11/27 05:56:40;;;;;;;64.25;21.35;;;;;;;7.01;59.56;100977.28;4479639;32;20097;-95
2022/11/27 05:59:05;;;;;;;109.03;21.58;;;;;;;6.72;59.56;100980.66;4471865;32;20096;-96
2022/11/27 06:01:31;;;;;;;150.07;20.92;;;;;;;6.80;59.55;100972.03;4475320;31;20124;-96
2022/11/27 06:03:56;;;;;;;50.58;19.12;;;;;;;6.84;59.56;100982.41;4468173;32;20147;-96
2022/11/27 06:06:22;;;;;;;66.53;15.55;;;;;;;6.94;59.57;100973.81;4464042;31;20425;-95
2022/11/27 06:08:47;;;;;;;142.27;18.80;;;;;;;6.86;59.56;100970.34;4483237;32;20108;-95
2022/11/27 06:11:18;;;;;;;94.03;16.98;;;;;;;6.82;59.56;100967.72;4459451;32;20552;-94
2022/11/27 06:13:44;;;;;;;58.13;15.73;;;;;;;6.84;59.56;100966.00;4471394;31;20551;-95
2022/11/27 06:16:17;;;;;;;69.37;17.98;;;;;;;6.98;59.57;100972.97;4459129;32;20149;-95
2022/11/27 06:18:43;;;;;;;73.47;17.65;;;;;;;6.93;59.56;100987.62;4459660;32;20743;-96
2022/11/27 06:21:10;;;;;;;37.45;16.95;;;;;;;6.99;59.57;100985.03;4472357;31;20104;-96
2022/11/27 06:23:35;;;;;;;53.63;18.42;;;;;;;7.03;59.57;100991.09;4484257;31;20103;-95
2022/11/27 06:26:15;;;;;;;52.30;15.48;;;;;;;7.07;59.57;100988.50;4487757;31;20458;-95
2022/11/27 06:28:40;;;;;;;35.20;15.90;;;;;;;7.26;59.59;100985.94;4465623;32;20114;-95
2022/11/27 06:31:10;;;;;;;38.63;18.30;;;;;;;7.14;59.57;100994.56;4459033;32;20113;-93
2022/11/27 06:33:36;;;;;;;60.00;26.95;;;;;;;7.14;59.57;100985.94;4487609;31;20116;-95
2022/11/27 06:36:02;;;;;;;56.10;26.87;;;;;;;7.15;59.57;100988.53;4472732;31;20091;-96
2022/11/27 06:38:27;;;;;;;68.12;27.87;;;;;;;7.24;59.58;100985.09;4465479;31;20118;-96
2022/11/27 06:40:52;;;;;;;48.87;23.85;;;;;;;7.33;59.59;100990.25;4471898;31;20176;-96
2022/11/27 06:43:18;;;;;;;62.75;31.15;;;;;;;7.39;59.58;100992.87;4474446;31;20123;-96
2022/11/27 06:45:43;;;;;;;47.60;23.25;;;;;;;7.50;59.60;100998.91;4487269;31;20107;-96
2022/11/27 06:48:09;;;;;;;39.60;19.58;;;;;;;7.42;59.59;100998.06;4471019;32;26850;-96
2022/11/27 06:50:34;;;;;;;34.00;18.02;;;;;;;7.45;59.60;100997.19;4463690;32;20128;-96
2022/11/27 06:52:59;;;;;;;40.03;16.35;;;;;;;7.43;59.59;101006.69;4474984;31;20432;-96
2022/11/27 06:55:25;;;;;;;36.30;16.52;;;;;;;7.59;59.60;101003.25;4475892;31;24450;-96
2022/11/27 06:57:50;;;;;;;36.42;17.58;;;;;;;7.46;59.58;101002.38;4476570;31;20136;-96
2022/11/27 07:00:17;;;;;;;35.00;16.77;;;;;;;7.63;59.61;100992.03;4473966;32;20124;-96
2022/11/27 07:02:42;;;;;;;32.75;17.15;;;;;;;7.76;59.61;100985.09;4467790;32;20100;-96
2022/11/27 07:05:08;;;;;;;37.97;18.00;;;;;;;7.76;59.62;100988.53;4474909;31;20166;-96
2022/11/27 07:07:33;;;;;;;39.75;19.60;;;;;;;7.71;59.61;100990.28;4476404;31;20232;-96
2022/11/27 07:09:59;;;;;;;44.40;22.85;;;;;;;7.79;59.61;100991.12;4476774;31;20175;-96
2022/11/27 07:12:24;;;;;;;39.72;20.37;;;;;;;7.90;59.61;100988.53;4475787;31;31013;-96
2022/11/27 07:14:49;;;;;;;34.78;18.40;;;;;;;7.85;59.62;100991.16;4465188;32;23853;-96
2022/11/27 07:17:15;;;;;;;38.00;18.45;;;;;;;7.98;59.62;100992.84;4460275;32;23358;-96
2022/11/27 07:19:40;;;;;;;36.30;18.75;;;;;;;8.00;59.62;100995.44;4473934;32;20172;-96
2022/11/27 07:22:06;;;;;;;42.45;21.25;;;;;;;8.04;59.62;100991.09;4461981;32;20451;-96
2022/11/27 07:24:31;;;;;;;40.55;20.92;;;;;;;8.01;59.63;100991.97;4469191;31;21812;-96
2022/11/27 07:26:56;;;;;;;42.10;20.50;;;;;;;7.97;59.61;101001.50;4475897;31;20397;-96
2022/11/27 07:29:22;;;;;;;44.17;21.02;;;;;;;7.93;59.62;100999.78;4474663;32;20164;-96
2022/11/27 07:31:50;;;;;;;41.63;20.55;;;;;;;7.93;59.62;101004.09;4476259;32;20138;-96
2022/11/27 07:34:15;;;;;;;41.20;18.60;;;;;;;8.00;59.63;101000.63;4482307;31;20108;-96
2022/11/27 07:36:40;;;;;;;43.65;20.37;;;;;;;8.16;59.63;101004.06;4485471;31;20103;-96
2022/11/27 07:39:06;;;;;;;43.17;20.95;;;;;;;8.35;59.64;100998.00;4466152;32;28382;-96
2022/11/27 07:41:31;;;;;;;45.28;21.15;;;;;;;8.37;59.64;101000.59;4476095;31;20197;-96
2022/11/27 07:43:57;;;;;;;40.58;19.55;;;;;;;8.44;59.65;101003.16;4473997;32;20485;-95
2022/11/27 07:46:22;;;;;;;41.83;21.35;;;;;;;8.63;59.66;100997.88;4474278;31;20115;-96
2022/11/27 07:48:48;;;;;;;39.22;19.02;;;;;;;8.59;59.66;101000.50;4476615;31;20143;-96
2022/11/27 07:51:15;;;;;;;42.15;19.27;;;;;;;8.69;59.66;100997.84;4466222;31;20136;-96
2022/11/27 07:53:40;;;;;;;40.65;20.62;;;;;;;8.77;59.67;100996.97;4476167;31;20112;-96
2022/11/27 07:56:07;;;;;;;44.95;20.83;;;;;;;8.90;59.68;100987.38;4473381;32;20168;-96
2022/11/27 07:58:32;;;;;;;40.95;20.58;;;;;;;8.62;59.65;100984.06;4473389;31;20130;-96
2022/11/27 08:00:57;;;;;;;42.95;20.40;;;;;;;8.62;59.65;100991.84;4473271;32;20112;-96
2022/11/27 08:03:23;;;;;;;42.95;21.17;;;;;;;8.56;59.65;100992.72;4473028;32;20134;-96
2022/11/27 08:05:48;;;;;;;43.85;20.30;;;;;;;8.40;59.64;100996.25;4481067;32;23016;-96
2022/11/27 08:08:14;;;;;;;37.67;20.15;;;;;;;8.59;59.66;101000.50;4465012;31;20120;-95
2022/11/27 08:10:39;;;;;;;44.05;21.05;;;;;;;8.79;59.66;100997.81;4476337;31;24477;-96
2022/11/27 08:13:05;;;;;;;43.85;21.52;;;;;;;8.82;59.67;101005.59;4473295;32;20115;-96
2022/11/27 08:15:30;;;;;;;42.92;19.10;;;;;;;8.65;59.65;100997.00;4473711;32;20142;-96
2022/11/27 08:17:56;;;;;;;45.35;20.98;;;;;;;8.80;59.66;100996.09;4479661;32;20187;-96
2022/11/27 08:20:21;;;;;;;42.03;19.12;;;;;;;8.77;59.66;101003.91;4475393;31;21004;-96
2022/11/27 08:22:47;;;;;;;38.67;18.02;;;;;;;8.84;59.67;101001.25;4468573;32;20095;-96
2022/11/27 08:25:12;;;;;;;40.38;18.87;;;;;;;8.81;59.66;100998.69;4474470;31;20120;-96
2022/11/27 08:27:38;;;;;;;43.65;19.73;;;;;;;8.78;59.66;101005.63;4473477;31;20112;-96
2022/11/27 08:30:04;;;;;;;41.80;18.77;;;;;;;8.97;59.67;101006.37;4460206;32;20130;-96
2022/11/27 08:32:30;;;;;;;38.55;18.77;;;;;;;9.10;59.68;101013.22;4498256;31;20151;-96
2022/11/27 08:34:55;;;;;;;43.30;19.10;;;;;;;9.04;59.67;101015.88;4475433;31;20225;-96
2022/11/27 08:37:20;;;;;;;39.63;19.10;;;;;;;9.06;59.68;101008.94;4475858;31;20132;-96
2022/11/27 08:39:46;;;;;;;41.05;18.87;;;;;;;9.18;59.68;101014.03;4461051;32;20512;-96
2022/11/27 08:42:11;;;;;;;48.10;20.27;;;;;;;9.16;59.68;101010.59;4473262;32;20177;-96
2022/11/27 08:44:37;;;;;;;40.90;17.05;;;;;;;9.01;59.67;101000.31;4475447;31;20408;-96
2022/11/27 08:47:02;;;;;;;40.15;17.48;;;;;;;8.99;59.67;101008.12;4475977;31;20116;-96
2022/11/27 08:49:28;;;;;;;45.75;18.30;;;;;;;9.06;59.68;101012.41;4464908;31;20130;-96
2022/11/27 08:51:53;;;;;;;40.50;17.02;;;;;;;9.02;59.67;101005.50;4483267;32;20174;-96
2022/11/27 08:54:18;;;;;;;47.70;17.98;;;;;;;9.02;59.68;101013.28;4459948;32;20124;-96
2022/11/27 08:56:44;;;;;;;45.65;17.85;;;;;;;9.16;59.68;101013.19;4460347;32;33074;-96
2022/11/27 08:59:10;;;;;;;43.20;18.20;;;;;;;9.22;59.69;101015.75;4473193;32;20124;-96
2022/11/27 09:01:35;;;;;;;40.95;19.35;;;;;;;9.08;59.68;101023.63;4486052;31;20104;-96
2022/11/27 09:04:01;;;;;;;40.55;17.33;;;;;;;9.07;59.68;101031.44;4466944;31;20139;-96
2022/11/27 09:06:28;;;;;;;37.13;16.33;;;;;;;9.27;59.69;101029.59;4464405;31;20148;-96
2022/11/27 09:09:00;;;;;;;43.38;17.08;;;;;;;9.25;59.69;101033.94;4475717;31;20076;-96
2022/11/27 09:11:26;;;;;;;38.67;14.95;;;;;;;9.25;59.68;101041.72;4475528;32;20467;-96
2022/11/27 09:13:52;;;;;;;29.25;13.82;;;;;;;9.26;59.68;101037.41;4480757;31;20056;-96
2022/11/27 09:16:19;;;;;;;32.33;13.57;;;;;;;9.10;59.68;101040.06;4478285;31;20156;-96
2022/11/27 09:18:45;;;;;;;32.60;14.85;;;;;;;9.19;59.69;101040.00;4461506;32;20102;-96
2022/11/27 09:21:11;;;;;;;32.10;14.45;;;;;;;9.36;59.70;101034.72;4459862;32;20084;-96
2022/11/27 09:23:39;;;;;;;34.08;15.43;;;;;;;9.14;59.68;101031.38;4473243;31;20118;-96
2022/11/27 09:26:06;;;;;;;31.90;13.75;;;;;;;9.19;59.69;101034.81;4476216;31;20606;-96
2022/11/27 09:28:32;;;;;;;32.65;13.90;;;;;;;9.39;59.70;101039.03;4466889;32;20084;-96
2022/11/27 09:30:59;;;;;;;32.17;13.82;;;;;;;9.36;59.70;101034.72;4461759;31;20122;-96
2022/11/27 09:33:25;;;;;;;33.58;14.70;;;;;;;9.59;59.71;101033.69;4471378;31;200972;-96
2022/11/27 09:35:50;;;;;;;37.92;13.57;;;;;;;9.55;59.70;101030.25;4476052;31;20104;-95
2022/11/27 09:38:17;;;;;;;35.65;13.25;;;;;;;9.57;59.70;101025.06;4476933;31;20141;-96
2022/11/27 09:40:46;;;;;;;30.02;13.65;;;;;;;9.53;59.70;101027.69;4480242;32;20122;-96
2022/11/27 09:43:13;;;;;;;32.58;14.40;;;;;;;9.49;59.71;101027.72;4483974;32;20741;-96
2022/11/27 09:45:43;;;;;;;39.13;17.08;;;;;;;9.15;59.68;101032.25;4467221;32;26177;-95
2022/11/27 09:48:11;;;;;;;39.97;16.95;;;;;;;9.28;59.70;101028.72;4475133;32;20105;-96
2022/11/27 09:50:41;;;;;;;39.85;20.35;;;;;;;9.39;59.69;101033.84;4475022;32;20061;-96
2022/11/27 09:53:24;;;;;;;38.78;20.40;;;;;;;9.23;59.69;101026.16;4473743;31;20118;-96
2022/11/27 09:55:52;;;;;;;41.55;24.45;;;;;;;9.26;59.68;101027.00;4504855;31;20068;-96
2022/11/27 09:58:35;;;;;;;46.88;23.65;;;;;;;9.29;59.69;101024.38;4476779;31;20103;-96
2022/11/27 10:01:00;;;;;;;40.10;20.15;;;;;;;9.18;59.68;101019.25;4490067;31;20096;-96
2022/11/27 10:03:26;;;;;;;35.97;16.25;;;;;;;9.47;59.70;101019.94;4472608;32;20104;-96
2022/11/27 10:06:01;;;;;;;38.47;17.12;;;;;;;9.69;59.71;101010.19;4481944;31;20100;-96
2022/11/27 10:08:47;;;;;;;40.78;19.25;;;;;;;9.61;59.71;101008.56;4490327;31;20159;-96
2022/11/27 10:11:25;;;;;;;37.85;18.08;;;;;;;9.60;59.71;101001.62;4476679;31;20060;-96
2022/11/27 10:13:58;;;;;;;45.75;23.15;;;;;;;9.53;59.71;101000.81;4488074;31;20108;-96
2022/11/27 10:16:43;;;;;;;60.60;34.60;;;;;;;9.66;59.71;100991.16;4490117;31;20092;-96
2022/11/27 10:19:27;;;;;;;38.20;17.58;;;;;;;9.71;59.71;100994.62;4483516;32;20072;-96
2022/11/27 10:21:56;;;;;;;35.03;16.75;;;;;;;9.85;59.72;100992.75;4486902;31;20089;-96
2022/11/27 10:25:10;;;;;;;41.33;21.05;;;;;;;9.92;59.72;100983.13;4475190;31;20073;-96
2022/11/27 10:27:39;;;;;;;83.05;43.00;;;;;;;9.90;59.72;100990.09;4493328;31;20104;-96
2022/11/27 10:30:15;;;;;;;59.53;28.90;;;;;;;9.85;59.72;100985.81;4469037;31;20128;-96
2022/11/27 10:32:41;;;;;;;71.28;37.45;;;;;;;9.80;59.72;100990.19;4476980;31;20092;-96
2022/11/27 10:35:16;;;;;;;60.58;32.53;;;;;;;9.83;59.72;100987.56;4470074;32;20142;-96
2022/11/27 10:37:43;;;;;;;31.65;14.73;;;;;;;9.83;59.72;100981.50;4474175;31;20104;-96
2022/11/27 10:40:11;;;;;;;32.17;14.50;;;;;;;9.82;59.72;100980.63;4483695;32;20165;-96
2022/11/27 10:42:55;;;;;;;28.62;14.27;;;;;;;9.90;59.73;100977.94;4499694;31;20159;-93
2022/11/27 10:45:30;;;;;;;37.15;19.05;;;;;;;10.15;59.74;100975.97;4503402;31;20104;-96
2022/11/27 10:47:56;;;;;;;34.80;15.90;;;;;;;9.73;59.72;100977.25;4481334;31;20503;-96
2022/11/27 10:50:21;;;;;;;38.45;18.60;;;;;;;9.64;59.71;100980.78;4482679;31;20129;-96
2022/11/27 10:52:57;;;;;;;37.03;16.90;;;;;;;9.96;59.73;100969.25;4468252;31;20088;-96
2022/11/27 10:56:10;;;;;;;31.40;15.85;;;;;;;9.96;59.73;100970.09;4481410;31;20456;-95
2022/11/27 10:58:58;;;;;;;30.40;14.75;;;;;;;9.89;59.72;100968.41;4441053;31;20093;-96
2022/11/27 11:01:25;;;;;;;51.53;27.42;;;;;;;9.98;59.73;100962.28;4483439;31;20890;-96
2022/11/27 11:04:03;;;;;;;37.67;18.45;;;;;;;9.67;59.71;100957.34;4461445;32;20092;-96
2022/11/27 11:06:29;;;;;;;31.62;15.20;;;;;;;9.63;59.71;100953.06;4461689;31;20149;-96
2022/11/27 11:09:06;;;;;;;33.97;14.87;;;;;;;9.92;59.73;100951.91;4476196;31;28143;-96
2022/11/27 11:11:31;;;;;;;33.70;15.05;;;;;;;9.86;59.72;100945.06;4476413;31;20716;-96
2022/11/27 11:13:57;;;;;;;37.83;18.15;;;;;;;9.81;59.72;100945.09;4473657;32;20145;-95
2022/11/27 11:16:29;;;;;;;49.72;19.50;;;;;;;10.00;59.73;100939.72;4470604;31;20108;-95
2022/11/27 11:18:55;;;;;;;46.08;19.67;;;;;;;10.22;59.74;100940.38;4478116;31;20099;-96
2022/11/27 11:21:28;;;;;;;49.15;19.27;;;;;;;10.14;59.73;100937.81;4491457;31;20134;-96